Pratinha, Brazil
Current Conditions -  °F | °C
As of 11:00 AM on Thursday 30 Oct 2014 (Local Time) from SBUR Reporting Station
Scattered Clouds Scattered Clouds  
Wind Chill: 82°   Ceiling: Unl
Heat Index: 84°   Visibility: 6mi
Dew Point: 64°   Wind: 18mph
Humidity: 54%   Direction: 320°NW
Pressure: 29.97"   Gusts: NA
Location:  19.75°S, 46.38°W
Report Text: SBUR 301300Z 32016KT 9999 SCT030 28/18 Q1015
Loading
Personal Weather Stations






























Interactive Weather Map
Tropical Storm Tracking
New forecast layout! Learn more

10-Day Weather Forecast

Advertisements
Track Severe Weather on mobile